• Join FlightAware (Why Join?)
  • Login
  • US Flag 
07:49PM EDT


 

Airport Tracker/Info


-or-


 

Live Flight TrackerFlight Track Log ✈ N244A ✈ 09-Mar-2014 ✈ KTEB - KCLT

Flight Track Log - Related Links

Times and Time Zones

All times are in EDT time to prevent confusion due to time zone crossing. See the N244A flight status page for this flight to view local times or setup timezone preferences in your user account.

Time Position Orientation Groundspeed Altitude Reporting Facility
EDT Latitude Longitude Course Direction KTS MPH feet Rate Location/Type
11:37AM 40.9167 -74.0500 252° West 218 251 3,200  Level New York TRACON
11:38AM 40.9167 -74.1333 270° West 250 288 4,800 3,000 Climbing New York TRACON
11:39AM 40.9167 -74.2333 270° West 241 277 9,300 2,640 Climbing New York TRACON
11:40AM 40.9000 -74.3333 258° West 329 379 10,100 360 Climbing New York TRACON
11:41AM 40.8500 -74.4500 240° Southwest 392 451 10,100  Level New York TRACON
11:42AM 40.6473 -74.7109 252° West  Level FlightAware Approximate
11:42AM 40.7833 -74.5667 233° Southwest 381 438 10,100  Level New York TRACON
11:43AM 40.7233 -74.7003 239° Southwest 411 473 11,700 2,280 Climbing New York Center
11:44AM 40.6697 -74.8094 237° Southwest 401 461 15,000 3,480 Climbing New York Center
11:45AM 40.6072 -74.9289 235° Southwest 401 461 18,700 2,700 Climbing New York Center
11:46AM 40.5508 -75.0456 238° Southwest 396 456 20,500 1,200 Climbing New York Center
11:47AM 40.4711 -75.1717 230° Southwest 418 481 21,200 1,200 Climbing New York Center
11:48AM 40.3914 -75.3000 231° Southwest 442 509 23,000 2,280 Climbing New York Center
11:49AM 40.3094 -75.4253 229° Southwest 457 526 25,800 2,940 Climbing New York Center
11:50AM 40.2336 -75.5453 230° Southwest 451 519 28,900 2,280 Climbing New York Center
11:51AM 40.1639 -75.6681 233° Southwest 439 505 30,400 960 Climbing New York Center
11:53AM 40.0336 -75.9383 238° Southwest 438 504 31,800 1,140 Climbing New York Center
11:54AM 39.9514 -76.0542 227° Southwest 443 510 33,900 1,020 Climbing New York Center
11:55AM 39.8422 -76.1647 218° Southwest 448 516 33,900  Level New York Center
11:56AM 39.7561 -76.2661 222° Southwest 459 528 34,000  Climbing New York Center
11:57AM 39.6550 -76.3797 221° Southwest 459 528 34,000 -120 Level New York Center
11:57AM 39.6022 -76.4425 223° Southwest 455 524 33,900  Descending Washington Center
11:58AM 39.4994 -76.5489 219° Southwest 455 524 34,000  Climbing Washington Center
11:59AM 39.4069 -76.6525 221° Southwest 455 524 34,000  Level Washington Center
12:00PM 39.3122 -76.7558 220° Southwest 460 529 34,000  Level Washington Center
12:01PM 39.2194 -76.8589 221° Southwest 455 524 34,000  Level Washington Center
12:02PM 39.1244 -76.9614 220° Southwest 455 524 34,000  Level Washington Center
12:03PM 39.0317 -77.0614 220° Southwest 455 524 34,000  Level Washington Center
12:04PM 38.9386 -77.1661 221° Southwest 450 518 34,000  Level Washington Center
12:05PM 38.8433 -77.2656 219° Southwest 445 512 34,000  Level Washington Center
12:06PM 38.7544 -77.3644 221° Southwest 439 505 34,000  Level Washington Center
12:07PM 38.6611 -77.4633 220° Southwest 439 505 34,000  Level Washington Center
12:08PM 38.5700 -77.5594 220° Southwest 439 505 34,000  Level Washington Center
12:09PM 38.4978 -77.6397 221° Southwest 439 505 34,000  Level Washington Center
12:10PM 38.3978 -77.7481 220° Southwest 439 505 34,000  Level Washington Center
12:11PM 38.3064 -77.8461 220° Southwest 439 505 34,000  Level Washington Center
12:12PM 38.2128 -77.9436 219° Southwest 439 505 34,000  Level Washington Center
12:13PM 38.1233 -78.0358 219° Southwest 434 499 34,000  Level Washington Center
12:14PM 38.0336 -78.1331 220° Southwest 434 499 34,000  Level Washington Center
12:15PM 37.9586 -78.2361 227° Southwest 415 478 34,000  Level Washington Center
12:16PM 37.8786 -78.3542 229° Southwest 409 471 34,000  Level Washington Center
12:17PM 37.8031 -78.4619 228° Southwest 409 471 34,000  Level Washington Center
12:18PM 37.7153 -78.5583 221° Southwest 409 471 34,000  Level Washington Center
12:19PM 37.6253 -78.6492 219° Southwest 415 478 34,000 -660 Level Washington Center
12:20PM 37.5397 -78.7400 220° Southwest 420 483 32,800 -1,440 Descending Washington Center
12:21PM 37.4625 -78.8206 220° Southwest 410 472 31,200 -1,380 Descending Washington Center
12:22PM 37.3831 -78.9033 220° Southwest 398 458 30,100 -1,140 Descending Washington Center
12:23PM 37.3014 -78.9886 220° Southwest 391 450 29,000 -600 Descending Washington Center
12:24PM 37.2175 -79.0736 219° Southwest 391 450 29,000  Level Washington Center
12:25PM 37.1400 -79.1561 220° Southwest 386 444 29,000  Level Washington Center
12:26PM 37.0539 -79.2458 220° Southwest 374 430 29,000  Level Washington Center
12:27PM 36.9742 -79.3278 219° Southwest 374 430 29,000  Level Washington Center
12:28PM 36.8983 -79.4097 221° Southwest 374 430 29,000  Level Washington Center
12:29PM 36.8167 -79.4914 219° Southwest 374 430 29,000  Level Washington Center
12:30PM 36.7389 -79.5731 220° Southwest 374 430 29,000  Level Washington Center
12:31PM 36.6675 -79.6444 219° Southwest 369 425 29,000  Level Washington Center
12:32PM 36.5875 -79.7283 220° Southwest 369 425 29,000 -1,260 Level Washington Center
12:35PM 36.4039 -79.9142 219° Southwest 385 443 25,100 -1,560 Descending Atlanta Center
12:36PM 36.3275 -79.9928 220° Southwest 373 429 24,000 -600 Descending Atlanta Center
12:37PM 36.2483 -80.0611 215° Southwest 359 413 24,000 -1,020 Level Atlanta Center
12:38PM 36.1692 -80.1267 214° Southwest 353 406 22,000 -1,980 Descending Atlanta Center
12:39PM 36.0897 -80.1947 215° Southwest 364 419 20,100 -1,560 Descending Atlanta Center
12:40PM 36.0086 -80.2653 215° Southwest 369 425 18,900 -2,100 Descending Atlanta Center
12:41PM 35.9314 -80.3331 215° Southwest 363 418 16,000 -3,060 Descending Atlanta Center
12:41PM 35.9133 -80.3544 224° Southwest 340 391 15,300 -2,040 Descending Atlanta Center
12:42PM 35.8581 -80.3953 211° Southwest 347 399 14,000 -1,800 Descending Atlanta Center
12:42PM 35.8400 -80.4142 220° Southwest 301 346 13,500 -1,020 Descending Atlanta Center
12:43PM 35.7911 -80.4522 212° Southwest 319 367 13,000 -1,140 Descending Atlanta Center
12:43PM 35.7647 -80.4764 217° Southwest 292 336 12,400 -1,800 Descending Atlanta Center
12:44PM 35.7136 -80.5169 213° Southwest 319 367 11,200 -1,440 Descending Atlanta Center
12:44PM 35.6831 -80.5411 213° Southwest 366 421 11,000 -240 Descending Atlanta Center
12:45PM 35.6322 -80.5869 216° Southwest 345 397 11,000 60 Level Atlanta Center
12:45PM 35.6056 -80.6083 213° Southwest 349 402 11,100 60 Climbing Atlanta Center
12:46PM 35.5567 -80.6486 214° Southwest 345 397 11,100 -240 Level Atlanta Center
12:46PM 35.5344 -80.6700 218° Southwest 311 358 10,900 -1,020 Descending Atlanta Center
12:47PM 35.4853 -80.7053 210° Southwest 325 374 10,100 -900 Descending Atlanta Center
12:47PM 35.4631 -80.7292 221° Southwest 301 346 10,000 -120 Descending Atlanta Center
12:48PM 35.4178 -80.7614 210° Southwest 313 360 10,000  Level Atlanta Center
12:48PM 35.3975 -80.7828 221° Southwest 288 331 10,000  Level Atlanta Center
12:49PM 35.3547 -80.8175 214° Southwest 296 341 10,000 -240 Level Atlanta Center
12:49PM 35.3219 -80.8392 208° Southwest 278 320 9,800 -900 Descending Atlanta Center
12:50PM 35.2758 -80.8383 179° South 286 329 9,100 -840 Descending Atlanta Center
12:50PM 35.2319 -80.8350 176° South 335 386 9,000 -840 Descending Atlanta Center
12:51PM 35.1861 -80.8317 177° South 299 344 8,300 -1,200 Descending Atlanta Center
12:51PM 35.1442 -80.8281 176° South 304 350 7,800 -1,380 Descending Atlanta Center
12:52PM 35.0583 -80.8189 175° South 247 284 6,200 -1,320 Descending Atlanta Center
12:53PM 35.0242 -80.8658 228° Southwest 189 217 5,100 -720 Descending Atlanta Center
12:54PM 35.0506 -80.9131 304° West 186 214 4,800 -720 Descending Atlanta Center
12:55PM 35.0947 -80.9267 346° North 188 216 3,800 -1,260 Descending Atlanta Center
12:56PM 35.1447 -80.9297 357° North 178 205 2,400 -1,320 Descending Atlanta Center
12:57PM 35.1886 -80.9358 354° North 141 162 1,100 -1,200 Descending Atlanta Center
12:59PM 35.2000 -80.9333 328° Northwest  Level FlightAware Approximate
01:06PM 35.2137 -80.9491 328° Northwest  Level Estimated